Terminal Aerodrome Forecast
Issued by NWS Goodland, KS

Home | Current Version | Previous Version | Text Only | Print | Product List | Glossary On
Versions: 1 2 3 4 5 6 7 8 9 10 11 12 13 14 15 16 17 18
000
FTUS43 KGLD 221729
TAFGLD
TAF
KGLD 221729Z 2218/2318 16015G25KT 4SM -SHRA BR SCT005 OVC010
      TEMPO 2218/2220 2SM RA BR BKN005
     FM222100 15016G25KT P6SM -DZ VCSH OVC015
     FM230200 14017G25KT 6SM -SHRA VCTS BKN003CB
     FM230600 15016G23KT 3SM -SHRA BR SCT001 BKN003
     FM231300 16015G23KT 1SM -DZ BR SCT001 BKN003
     FM231500 16017G24KT 6SM BR BKN003=

USA.gov is the U.S. government's official web portal to all federal, state and local government web resources and services.